createdAt,value
2022-11-09T00:01:50.104Z,87.13
2022-11-09T00:06:53.494Z,86.69
2022-11-09T00:11:56.286Z,86.37
2022-11-09T00:16:59.407Z,85.65
2022-11-09T00:22:02.195Z,85.01
2022-11-09T00:27:04.894Z,84.90
2022-11-09T00:32:07.721Z,84.61
2022-11-09T00:37:10.507Z,83.96
2022-11-09T00:42:14.345Z,83.95
2022-11-09T00:47:17.011Z,83.23
2022-11-09T00:52:19.713Z,82.90
2022-11-09T00:57:22.521Z,82.71
2022-11-09T01:02:25.420Z,82.46
2022-11-09T01:07:28.095Z,81.50
2022-11-09T01:12:30.832Z,81.57
2022-11-09T01:17:33.728Z,81.02
2022-11-09T01:22:36.529Z,80.74
2022-11-09T01:27:39.391Z,80.27
2022-11-09T01:32:42.111Z,80.14
2022-11-09T01:37:44.898Z,80.38
2022-11-09T01:42:47.592Z,79.01
2022-11-09T01:48:07.599Z,78.45
2022-11-09T01:53:15.380Z,78.83
2022-11-09T01:58:22.574Z,78.01
2022-11-09T02:03:33.738Z,78.08
2022-11-09T02:08:36.424Z,77.31
2022-11-09T02:13:42.113Z,77.32
2022-11-09T02:18:58.587Z,77.13
2022-11-09T02:24:01.809Z,77.26
2022-11-09T02:29:08.280Z,77.09
2022-11-09T02:34:20.208Z,76.72
2022-11-09T02:39:26.275Z,77.07
2022-11-09T02:44:31.046Z,76.65
2022-11-09T02:49:33.894Z,76.38
2022-11-09T02:54:36.743Z,75.79
2022-11-09T02:59:40.540Z,75.06
2022-11-09T03:04:43.278Z,75.37
2022-11-09T03:09:46.860Z,75.35
2022-11-09T03:14:49.598Z,74.06
2022-11-09T03:19:52.858Z,74.20
2022-11-09T03:24:56.257Z,74.04
2022-11-09T03:29:59.988Z,74.16
2022-11-09T03:35:02.871Z,73.56
2022-11-09T03:40:06.561Z,73.39
2022-11-09T03:45:09.980Z,73.43
2022-11-09T03:50:13.952Z,73.36
2022-11-09T03:55:16.718Z,73.47
2022-11-09T04:00:21.583Z,73.21
2022-11-09T04:05:25.759Z,72.99
2022-11-09T04:10:28.502Z,72.08
2022-11-09T04:15:31.192Z,71.65
2022-11-09T04:20:33.978Z,71.93
2022-11-09T04:25:38.195Z,72.29
2022-11-09T04:30:43.479Z,71.77
2022-11-09T04:35:46.243Z,71.73
2022-11-09T04:40:48.938Z,71.11
2022-11-09T04:45:51.635Z,71.72
2022-11-09T04:51:00.060Z,71.55
2022-11-09T04:56:03.772Z,70.82
2022-11-09T05:01:09.095Z,70.65
2022-11-09T05:06:30.253Z,70.50
2022-11-09T05:11:34.039Z,69.91
2022-11-09T05:16:36.818Z,71.03
2022-11-09T05:21:39.820Z,70.01
2022-11-09T05:26:42.845Z,69.37
2022-11-09T05:31:51.990Z,69.54
2022-11-09T05:36:58.184Z,69.78
2022-11-09T05:42:05.089Z,69.50
2022-11-09T05:47:07.811Z,69.78
2022-11-09T05:52:10.505Z,69.69
2022-11-09T05:57:13.152Z,69.30
2022-11-09T06:02:15.941Z,68.75
2022-11-09T06:07:18.698Z,67.90
2022-11-09T06:12:21.458Z,68.37
2022-11-09T06:17:24.144Z,68.03
2022-11-09T06:22:26.792Z,67.97
2022-11-09T06:27:29.499Z,68.13
2022-11-09T06:32:32.235Z,68.14
2022-11-09T06:37:34.994Z,68.03
2022-11-09T06:42:37.719Z,67.70
2022-11-09T06:47:40.383Z,67.97
2022-11-09T06:52:43.132Z,68.24
2022-11-09T06:57:45.808Z,68.68
2022-11-09T07:02:48.529Z,68.61
2022-11-09T07:07:51.357Z,68.60
2022-11-09T07:12:54.092Z,68.25
2022-11-09T07:18:01.406Z,67.81
2022-11-09T07:23:04.146Z,68.19
2022-11-09T07:28:09.307Z,67.86
2022-11-09T07:33:18.635Z,68.48
2022-11-09T07:38:21.288Z,68.68
2022-11-09T07:43:24.012Z,68.58
2022-11-09T07:48:28.179Z,69.05
2022-11-09T07:53:30.974Z,69.23
2022-11-09T07:58:34.694Z,69.04
2022-11-09T08:03:37.513Z,69.33
2022-11-09T08:08:40.121Z,68.53
2022-11-09T08:13:42.911Z,68.85
2022-11-09T08:18:45.674Z,69.24
2022-11-09T08:23:48.496Z,69.32
2022-11-09T08:28:51.381Z,68.94
2022-11-09T08:33:54.279Z,69.52
2022-11-09T08:38:59.521Z,69.42
2022-11-09T08:44:02.216Z,69.28
2022-11-09T08:49:04.780Z,69.77
2022-11-09T08:54:07.487Z,69.93
2022-11-09T08:59:10.237Z,70.00
2022-11-09T09:04:13.020Z,70.12
2022-11-09T09:09:15.816Z,70.37
2022-11-09T09:14:18.594Z,70.86
2022-11-09T09:19:21.630Z,71.06
2022-11-09T09:24:24.381Z,71.21
2022-11-09T09:29:27.126Z,71.17
2022-11-09T09:34:29.787Z,71.37
2022-11-09T09:39:32.476Z,71.73
2022-11-09T09:44:41.447Z,71.66
2022-11-09T09:49:51.082Z,71.70
2022-11-09T09:54:56.579Z,71.81
2022-11-09T10:00:01.907Z,71.89
2022-11-09T10:05:16.383Z,71.86
2022-11-09T10:10:44.747Z,72.34
2022-11-09T10:16:02.731Z,72.68
2022-11-09T10:21:24.134Z,72.68
2022-11-09T10:26:54.200Z,72.73
2022-11-09T10:32:06.187Z,72.87
2022-11-09T10:37:29.326Z,73.41
2022-11-09T10:42:32.061Z,73.50
2022-11-09T10:47:53.300Z,73.41
2022-11-09T10:53:18.926Z,73.27
2022-11-09T10:58:50.116Z,73.43
2022-11-09T11:04:22.874Z,73.50
2022-11-09T11:09:44.675Z,73.69
2022-11-09T11:15:24.058Z,73.86
2022-11-09T11:20:45.455Z,73.90
2022-11-09T11:26:23.940Z,73.55
2022-11-09T11:31:45.285Z,74.02
2022-11-09T11:37:10.433Z,73.98
2022-11-09T11:42:56.580Z,73.93
2022-11-09T11:48:59.284Z,74.24
2022-11-09T11:54:41.292Z,73.72
2022-11-09T12:00:15.418Z,73.95
2022-11-09T12:05:36.315Z,73.62
2022-11-09T12:11:12.956Z,73.84
2022-11-09T12:17:00.250Z,73.60
2022-11-09T12:23:02.607Z,74.08
2022-11-09T12:28:48.761Z,73.74
2022-11-09T12:34:15.770Z,73.78
2022-11-09T12:39:47.325Z,73.49
2022-11-09T12:45:35.046Z,73.97
2022-11-09T12:50:56.562Z,73.57
2022-11-09T12:56:18.916Z,73.93
2022-11-09T13:01:40.213Z,74.10
2022-11-09T13:07:04.005Z,74.01
2022-11-09T13:12:38.315Z,73.50
2022-11-09T13:18:05.489Z,73.95
2022-11-09T13:23:59.211Z,73.96
2022-11-09T13:29:41.971Z,74.20
2022-11-09T13:35:04.913Z,74.46
2022-11-09T13:40:32.221Z,74.68
2022-11-09T13:46:05.390Z,74.92
2022-11-09T13:51:46.587Z,74.72
2022-11-09T13:57:07.766Z,74.68
2022-11-09T14:02:36.679Z,74.58
2022-11-09T14:08:02.202Z,74.83
2022-11-09T14:13:23.320Z,74.90
2022-11-09T14:18:55.074Z,74.59
2022-11-09T14:24:22.386Z,74.26
2022-11-09T14:29:58.092Z,74.70
2022-11-09T14:35:26.933Z,74.38
2022-11-09T14:40:49.320Z,74.58
2022-11-09T14:46:19.744Z,74.34
2022-11-09T14:51:41.153Z,74.59
2022-11-09T14:57:02.266Z,74.48
2022-11-09T15:02:24.303Z,74.27
2022-11-09T15:07:47.460Z,74.27
2022-11-09T15:13:08.792Z,74.17
2022-11-09T15:18:34.568Z,74.31
2022-11-09T15:24:11.309Z,74.02
2022-11-09T15:29:32.372Z,74.40
2022-11-09T15:34:56.346Z,74.52
2022-11-09T15:40:23.257Z,74.52
2022-11-09T15:45:44.622Z,74.80
2022-11-09T15:51:05.807Z,74.43
2022-11-09T15:56:26.856Z,74.48
2022-11-09T16:01:48.268Z,74.15
2022-11-09T16:07:11.801Z,74.13
2022-11-09T16:12:33.273Z,74.36
2022-11-09T16:17:54.616Z,74.09
2022-11-09T16:23:15.871Z,74.15
2022-11-09T16:28:43.659Z,74.22
2022-11-09T16:34:04.860Z,73.66
2022-11-09T16:39:26.414Z,73.64
2022-11-09T16:44:48.740Z,73.92
2022-11-09T16:50:10.324Z,73.57
2022-11-09T16:55:31.572Z,73.38
2022-11-09T17:01:11.335Z,73.66
2022-11-09T17:06:34.441Z,73.55
2022-11-09T17:11:56.004Z,73.72
2022-11-09T17:17:22.480Z,73.82
2022-11-09T17:22:46.276Z,74.23
2022-11-09T17:28:07.774Z,74.22
2022-11-09T17:33:28.988Z,73.77
2022-11-09T17:38:50.312Z,73.70
2022-11-09T17:44:11.674Z,73.39
2022-11-09T17:49:32.985Z,73.79
2022-11-09T17:54:54.124Z,74.05
2022-11-09T18:00:15.667Z,74.08
2022-11-09T18:05:41.175Z,74.49
2022-11-09T18:11:02.513Z,74.61
2022-11-09T18:16:23.868Z,75.00
2022-11-09T18:21:47.832Z,74.85
2022-11-09T18:27:08.829Z,75.21
2022-11-09T18:32:30.623Z,74.53
2022-11-09T18:37:51.617Z,74.88
2022-11-09T18:43:12.809Z,74.53
2022-11-09T18:48:34.455Z,74.23
2022-11-09T18:53:55.668Z,73.97
2022-11-09T18:59:17.275Z,73.68
2022-11-09T19:04:38.698Z,73.80
2022-11-09T19:09:59.803Z,73.47
2022-11-09T19:15:20.811Z,73.30
2022-11-09T19:20:41.981Z,73.28
2022-11-09T19:26:03.407Z,73.37
2022-11-09T19:31:25.158Z,73.22
2022-11-09T19:36:46.534Z,72.83
2022-11-09T19:42:07.622Z,72.25
2022-11-09T19:47:28.699Z,72.40
2022-11-09T19:52:49.861Z,72.54
2022-11-09T19:58:11.695Z,72.29
2022-11-09T20:03:32.832Z,72.24
2022-11-09T20:08:54.231Z,72.34
2022-11-09T20:14:15.683Z,72.31
2022-11-09T20:19:37.234Z,72.33
2022-11-09T20:24:58.277Z,72.81
2022-11-09T20:30:20.041Z,72.53
2022-11-09T20:35:46.600Z,73.15
2022-11-09T20:41:11.049Z,73.20
2022-11-09T20:46:36.233Z,73.63
2022-11-09T20:51:59.414Z,73.61
2022-11-09T20:57:20.499Z,73.85
2022-11-09T21:02:43.524Z,74.38
2022-11-09T21:08:04.706Z,74.56
2022-11-09T21:13:26.044Z,74.49
2022-11-09T21:18:47.285Z,74.86
2022-11-09T21:24:28.376Z,74.92
2022-11-09T21:29:52.370Z,75.23
2022-11-09T21:35:13.490Z,75.17
2022-11-09T21:40:34.516Z,75.22
2022-11-09T21:45:56.388Z,74.87
2022-11-09T21:51:17.618Z,75.15
2022-11-09T21:56:38.816Z,74.69
2022-11-09T22:01:59.709Z,74.65
2022-11-09T22:07:20.939Z,74.79
2022-11-09T22:13:00.548Z,74.13
2022-11-09T22:18:40.345Z,74.35
2022-11-09T22:24:02.148Z,74.09
2022-11-09T22:29:23.135Z,74.83
2022-11-09T22:34:45.131Z,75.02
2022-11-09T22:40:06.897Z,74.96
2022-11-09T22:45:27.830Z,75.21
2022-11-09T22:50:49.275Z,75.78
2022-11-09T22:56:11.734Z,75.99
2022-11-09T23:01:32.978Z,76.17
2022-11-09T23:06:54.460Z,76.39
2022-11-09T23:12:16.037Z,76.43
2022-11-09T23:17:55.381Z,76.80
2022-11-09T23:23:16.571Z,76.90
2022-11-09T23:28:37.908Z,77.82
2022-11-09T23:33:59.141Z,77.94
2022-11-09T23:39:20.313Z,78.49
2022-11-09T23:44:41.667Z,78.86
2022-11-09T23:50:02.590Z,79.43
2022-11-09T23:55:23.623Z,79.84
